createdAt,value
2019-02-25T00:01:31.020Z,27.40
2019-02-25T00:04:00.706Z,25.53
2019-02-25T00:06:30.607Z,24.73
2019-02-25T00:09:00.367Z,23.53
2019-02-25T00:11:31.778Z,23.43
2019-02-25T00:14:01.689Z,22.03
2019-02-25T00:16:31.748Z,25.70
2019-02-25T00:19:02.561Z,24.27
2019-02-25T00:21:32.313Z,24.00
2019-02-25T00:24:01.977Z,22.48
2019-02-25T00:26:31.899Z,24.37
2019-02-25T00:29:01.571Z,23.37
2019-02-25T00:31:31.263Z,21.87
2019-02-25T00:34:01.107Z,19.97
2019-02-25T00:36:30.821Z,22.67
2019-02-25T00:39:00.496Z,21.90
2019-02-25T00:41:32.061Z,22.95
2019-02-25T00:44:01.737Z,21.73
2019-02-25T00:46:31.802Z,21.90
2019-02-25T00:49:01.477Z,22.23
2019-02-25T00:51:31.151Z,21.67
2019-02-25T00:54:01.350Z,22.83
2019-02-25T00:56:31.033Z,22.53
2019-02-25T00:59:02.148Z,20.93
2019-02-25T01:01:32.094Z,23.93
2019-02-25T01:04:02.832Z,23.80
2019-02-25T01:06:32.525Z,22.63
2019-02-25T01:09:02.212Z,23.73
2019-02-25T01:11:34.428Z,23.13
2019-02-25T01:14:05.180Z,21.35
2019-02-25T01:16:35.089Z,22.30
2019-02-25T01:19:05.560Z,22.75
2019-02-25T01:21:35.246Z,23.03
2019-02-25T01:24:04.985Z,24.43
2019-02-25T01:26:34.673Z,25.87
2019-02-25T01:29:05.241Z,23.02
2019-02-25T01:31:34.932Z,22.00
2019-02-25T01:34:04.760Z,20.90
2019-02-25T01:36:34.697Z,26.33
2019-02-25T01:39:06.597Z,26.43
2019-02-25T01:41:36.669Z,25.47
2019-02-25T01:44:07.294Z,23.83
2019-02-25T01:46:36.969Z,24.53
2019-02-25T01:49:06.682Z,22.87
2019-02-25T01:51:36.366Z,26.17
2019-02-25T01:54:06.113Z,24.00
2019-02-25T01:56:35.905Z,21.27
2019-02-25T01:59:05.596Z,25.33
2019-02-25T02:01:35.329Z,24.13
2019-02-25T02:04:04.956Z,21.53
2019-02-25T02:06:34.627Z,24.17
2019-02-25T02:09:07.429Z,25.52
2019-02-25T02:11:38.508Z,24.87
2019-02-25T02:14:08.173Z,24.77
2019-02-25T02:16:37.844Z,23.97
2019-02-25T02:19:07.512Z,22.17
2019-02-25T02:21:37.287Z,23.03
2019-02-25T02:24:06.908Z,29.17
2019-02-25T02:26:36.576Z,30.43
2019-02-25T02:29:06.531Z,23.80
2019-02-25T02:31:36.209Z,24.77
2019-02-25T02:34:06.030Z,21.27
2019-02-25T02:36:35.685Z,24.67
2019-02-25T02:39:07.519Z,22.33
2019-02-25T02:42:15.506Z,23.80
2019-02-25T02:44:46.879Z,22.50
2019-02-25T02:47:43.395Z,25.07
2019-02-25T02:50:16.298Z,22.17
2019-02-25T02:52:46.123Z,25.15
2019-02-25T02:55:15.799Z,22.30
2019-02-25T02:57:45.473Z,22.63
2019-02-25T03:00:17.574Z,23.27
2019-02-25T03:02:47.552Z,22.63
2019-02-25T03:05:18.023Z,25.05
2019-02-25T03:07:47.790Z,23.33
2019-02-25T03:10:18.456Z,21.77
2019-02-25T03:12:48.188Z,23.47
2019-02-25T03:15:19.701Z,21.47
2019-02-25T03:17:49.463Z,24.07
2019-02-25T03:20:19.270Z,21.30
2019-02-25T03:22:49.272Z,21.77
2019-02-25T03:25:19.211Z,21.57
2019-02-25T03:27:49.506Z,22.77
2019-02-25T03:30:20.438Z,25.95
2019-02-25T03:32:50.286Z,24.63
2019-02-25T03:35:20.542Z,24.00
2019-02-25T03:37:50.224Z,22.57
2019-02-25T03:40:20.410Z,24.87
2019-02-25T03:42:51.445Z,22.87
2019-02-25T03:45:22.261Z,24.50
2019-02-25T03:47:52.258Z,24.60
2019-02-25T03:50:22.001Z,24.57
2019-02-25T03:52:51.745Z,21.60
2019-02-25T03:55:21.612Z,21.00
2019-02-25T03:57:51.380Z,22.63
2019-02-25T04:00:22.103Z,22.17
2019-02-25T04:02:51.866Z,22.83
2019-02-25T04:05:21.656Z,21.97
2019-02-25T04:07:51.500Z,24.93
2019-02-25T04:10:21.317Z,24.90
2019-02-25T04:12:51.002Z,22.80
2019-02-25T04:15:23.876Z,22.23
2019-02-25T04:17:53.652Z,21.83
2019-02-25T04:20:23.416Z,23.70
2019-02-25T04:22:53.086Z,24.10
2019-02-25T04:25:22.758Z,21.73
2019-02-25T04:27:52.718Z,25.07
2019-02-25T04:30:22.474Z,24.12
2019-02-25T04:32:52.376Z,22.13
2019-02-25T04:35:22.043Z,22.20
2019-02-25T04:37:51.705Z,21.97
2019-02-25T04:40:21.517Z,21.48
2019-02-25T04:42:51.386Z,20.53
2019-02-25T04:45:21.220Z,24.30
2019-02-25T04:47:51.816Z,22.93
2019-02-25T04:50:21.490Z,23.55
2019-02-25T04:52:51.398Z,25.30
2019-02-25T04:55:22.054Z,24.17
2019-02-25T04:57:52.728Z,22.97
2019-02-25T05:00:22.440Z,21.33
2019-02-25T05:02:52.345Z,22.67
2019-02-25T05:05:23.083Z,22.23
2019-02-25T05:07:52.758Z,23.42
2019-02-25T05:10:22.545Z,24.33
2019-02-25T05:12:57.079Z,22.17
2019-02-25T05:15:27.026Z,20.40
2019-02-25T05:17:56.709Z,21.37
2019-02-25T05:20:26.414Z,20.23
2019-02-25T05:22:56.099Z,20.37
2019-02-25T05:25:26.099Z,21.90
2019-02-25T05:27:56.752Z,21.10
2019-02-25T05:30:26.432Z,23.23
2019-02-25T05:32:56.123Z,23.00
2019-02-25T05:35:26.043Z,23.13
2019-02-25T05:37:55.971Z,23.47
2019-02-25T05:40:25.828Z,22.03
2019-02-25T05:42:56.038Z,20.13
2019-02-25T05:45:25.764Z,21.53
2019-02-25T05:47:55.429Z,22.13
2019-02-25T05:50:25.114Z,23.05
2019-02-25T05:52:54.795Z,22.73
2019-02-25T05:55:24.537Z,22.30
2019-02-25T05:57:54.409Z,20.47
2019-02-25T06:00:25.711Z,22.43
2019-02-25T06:02:55.445Z,23.87
2019-02-25T06:05:25.231Z,24.43
2019-02-25T06:07:54.921Z,25.00
2019-02-25T06:10:24.590Z,26.93
2019-02-25T06:12:54.283Z,26.43
2019-02-25T06:15:24.046Z,26.90
2019-02-25T06:17:53.716Z,24.43
2019-02-25T06:20:23.390Z,21.90
2019-02-25T06:22:53.680Z,21.50
2019-02-25T06:25:23.373Z,22.80
2019-02-25T06:27:53.026Z,21.83
2019-02-25T06:30:22.868Z,21.05
2019-02-25T06:32:52.625Z,21.03
2019-02-25T06:35:22.291Z,21.55
2019-02-25T06:37:52.778Z,21.83
2019-02-25T06:40:22.534Z,22.87
2019-02-25T06:42:52.215Z,20.00
2019-02-25T06:45:22.029Z,21.30
2019-02-25T06:47:51.936Z,20.33
2019-02-25T06:50:21.618Z,23.20
2019-02-25T06:52:51.332Z,20.57
2019-02-25T06:55:21.952Z,20.63
2019-02-25T06:57:51.675Z,21.23
2019-02-25T07:00:22.065Z,19.62
2019-02-25T07:02:51.911Z,19.30
2019-02-25T07:05:40.120Z,20.93
2019-02-25T07:08:12.303Z,19.90
2019-02-25T07:10:46.180Z,24.20
2019-02-25T07:13:34.872Z,21.50
2019-02-25T07:16:18.123Z,22.57
2019-02-25T07:19:00.925Z,20.30
2019-02-25T07:21:50.141Z,25.47
2019-02-25T07:24:27.625Z,20.12
2019-02-25T07:27:07.598Z,21.77
2019-02-25T07:29:46.762Z,21.57
2019-02-25T07:32:39.502Z,28.50
2019-02-25T07:35:21.618Z,34.20
2019-02-25T07:37:58.837Z,37.33
2019-02-25T07:40:48.107Z,44.17
2019-02-25T07:43:36.532Z,33.33
2019-02-25T07:46:13.694Z,25.53
2019-02-25T07:49:02.577Z,26.03
2019-02-25T07:51:54.053Z,23.63
2019-02-25T07:54:30.527Z,26.73
2019-02-25T07:57:34.373Z,22.43
2019-02-25T08:00:28.994Z,23.60
2019-02-25T08:03:05.615Z,23.93
2019-02-25T08:05:57.986Z,27.10
2019-02-25T08:08:44.426Z,23.33
2019-02-25T08:11:24.201Z,26.83
2019-02-25T08:14:15.057Z,26.23
2019-02-25T08:17:09.623Z,27.03
2019-02-25T08:19:50.580Z,24.83
2019-02-25T08:22:31.942Z,37.40
2019-02-25T08:25:11.837Z,34.27
2019-02-25T08:28:06.641Z,32.37
2019-02-25T08:30:58.785Z,34.43
2019-02-25T08:33:55.406Z,27.80
2019-02-25T08:37:21.277Z,27.90
2019-02-25T08:40:00.293Z,29.47
2019-02-25T08:42:50.650Z,33.53
2019-02-25T08:45:37.747Z,28.52
2019-02-25T08:48:17.457Z,27.47
2019-02-25T08:50:47.158Z,25.37
2019-02-25T08:53:17.121Z,27.03
2019-02-25T08:55:46.876Z,26.73
2019-02-25T08:58:16.693Z,26.95
2019-02-25T09:00:46.358Z,25.63
2019-02-25T09:03:16.090Z,27.07
2019-02-25T09:05:45.762Z,24.07
2019-02-25T09:08:15.533Z,28.20
2019-02-25T09:10:45.200Z,25.27
2019-02-25T09:13:15.111Z,25.10
2019-02-25T09:15:44.777Z,23.90
2019-02-25T09:18:14.453Z,23.55
2019-02-25T09:20:44.289Z,23.33
2019-02-25T09:23:14.220Z,23.07
2019-02-25T09:25:44.128Z,20.67
2019-02-25T09:28:13.843Z,21.93
2019-02-25T09:30:43.577Z,20.73
2019-02-25T09:33:13.258Z,21.03
2019-02-25T09:35:42.973Z,21.67
2019-02-25T09:38:12.901Z,20.68
2019-02-25T09:40:42.598Z,20.20
2019-02-25T09:43:12.866Z,19.50
2019-02-25T09:45:42.536Z,22.10
2019-02-25T09:48:12.279Z,18.13
2019-02-25T09:50:42.042Z,19.73
2019-02-25T09:53:11.955Z,17.33
2019-02-25T09:55:41.705Z,17.17
2019-02-25T09:58:11.463Z,17.75
2019-02-25T10:00:41.417Z,19.50
2019-02-25T10:03:11.090Z,20.40
2019-02-25T10:05:40.774Z,19.37
2019-02-25T10:08:10.473Z,17.75
2019-02-25T10:10:40.446Z,17.53
2019-02-25T10:13:10.357Z,16.80
2019-02-25T10:15:40.114Z,16.13
2019-02-25T10:18:10.125Z,18.67
2019-02-25T10:20:40.037Z,16.37
2019-02-25T10:23:09.945Z,15.40
2019-02-25T10:25:39.709Z,15.63
2019-02-25T10:28:09.649Z,13.10
2019-02-25T10:30:39.867Z,15.10
2019-02-25T10:33:10.608Z,13.20
2019-02-25T10:35:40.275Z,13.17
2019-02-25T10:38:09.968Z,14.53
2019-02-25T10:40:39.668Z,12.50
2019-02-25T10:43:09.342Z,14.28
2019-02-25T10:45:41.054Z,12.73
2019-02-25T10:48:12.072Z,14.58
2019-02-25T10:50:41.834Z,13.20
2019-02-25T10:53:13.564Z,11.73
2019-02-25T10:55:49.322Z,12.30
2019-02-25T10:58:20.791Z,13.88
2019-02-25T11:00:50.627Z,12.57
2019-02-25T11:03:21.778Z,11.75
2019-02-25T11:05:52.174Z,12.07
2019-02-25T11:08:23.268Z,12.82
2019-02-25T11:11:12.549Z,11.37
2019-02-25T11:13:42.622Z,13.30
2019-02-25T11:16:13.910Z,11.13
2019-02-25T11:18:43.970Z,12.80
2019-02-25T11:21:13.715Z,11.60
2019-02-25T11:23:45.053Z,11.43
2019-02-25T11:26:15.899Z,10.40
2019-02-25T11:28:49.958Z,10.40
2019-02-25T11:31:22.796Z,10.80
2019-02-25T11:33:51.159Z,10.03
2019-02-25T11:36:22.053Z,10.10
2019-02-25T11:38:51.813Z,14.53
2019-02-25T11:41:21.564Z,9.77
2019-02-25T11:43:52.983Z,9.80
2019-02-25T11:46:23.145Z,9.15
2019-02-25T11:48:52.941Z,10.20
2019-02-25T11:51:22.746Z,9.80
2019-02-25T11:53:52.365Z,9.73
2019-02-25T11:56:22.113Z,9.60
2019-02-25T11:58:53.165Z,10.07
2019-02-25T12:01:22.827Z,9.90
2019-02-25T12:03:52.570Z,9.47
2019-02-25T12:06:22.367Z,9.40
2019-02-25T12:08:52.033Z,9.87
2019-02-25T12:11:21.973Z,9.93
2019-02-25T12:13:51.645Z,10.17
2019-02-25T12:16:21.800Z,9.07
2019-02-25T12:18:52.021Z,8.67
2019-02-25T12:21:21.676Z,8.67
2019-02-25T12:23:51.593Z,8.47
2019-02-25T12:26:21.284Z,9.00
2019-02-25T12:28:51.255Z,9.23
2019-02-25T12:32:09.065Z,9.18
2019-02-25T12:34:44.040Z,8.83
2019-02-25T12:37:13.720Z,8.97
2019-02-25T12:39:43.402Z,9.07
2019-02-25T12:42:13.068Z,8.50
2019-02-25T12:44:42.758Z,9.10
2019-02-25T12:47:12.678Z,8.07
2019-02-25T12:49:42.360Z,10.43
2019-02-25T12:52:12.300Z,9.20
2019-02-25T12:54:41.966Z,8.80
2019-02-25T12:57:11.637Z,9.00
2019-02-25T12:59:41.450Z,8.73
2019-02-25T13:02:11.320Z,8.10
2019-02-25T13:04:40.989Z,8.50
2019-02-25T13:07:10.659Z,8.80
2019-02-25T13:09:40.339Z,9.17
2019-02-25T13:12:10.038Z,8.73
2019-02-25T13:14:40.012Z,8.07
2019-02-25T13:17:09.686Z,9.93
2019-02-25T13:19:39.617Z,9.60
2019-02-25T13:22:09.412Z,9.47
2019-02-25T13:24:39.591Z,8.67
2019-02-25T13:27:11.765Z,10.27
2019-02-25T13:29:40.919Z,9.77
2019-02-25T13:32:10.603Z,9.47
2019-02-25T13:34:40.277Z,10.37
2019-02-25T13:37:10.894Z,10.50
2019-02-25T13:39:40.575Z,9.23
2019-02-25T13:42:11.219Z,9.27
2019-02-25T13:44:40.905Z,9.20
2019-02-25T13:47:10.598Z,8.93
2019-02-25T13:49:40.257Z,9.83
2019-02-25T13:52:10.231Z,8.57
2019-02-25T13:54:39.896Z,8.93
2019-02-25T13:57:09.565Z,9.30
2019-02-25T13:59:39.332Z,9.33
2019-02-25T14:02:09.140Z,9.93
2019-02-25T14:04:39.151Z,9.57
2019-02-25T14:07:08.920Z,9.65
2019-02-25T14:09:38.814Z,10.00
2019-02-25T14:12:08.629Z,9.50
2019-02-25T14:14:38.380Z,9.33
2019-02-25T14:17:08.152Z,10.77
2019-02-25T14:19:37.896Z,9.53
2019-02-25T14:22:07.627Z,9.23
2019-02-25T14:24:38.567Z,9.23
2019-02-25T14:27:11.729Z,10.20
2019-02-25T14:29:41.727Z,9.77
2019-02-25T14:32:15.377Z,9.23
2019-02-25T14:34:46.449Z,10.87
2019-02-25T14:37:17.546Z,10.47
2019-02-25T14:39:51.593Z,9.20
2019-02-25T14:42:20.834Z,9.53
2019-02-25T14:44:52.233Z,10.00
2019-02-25T14:47:25.738Z,11.43
2019-02-25T14:49:53.194Z,10.57
2019-02-25T14:52:24.464Z,10.63
2019-02-25T14:54:54.406Z,10.77
2019-02-25T14:57:24.839Z,10.30
2019-02-25T14:59:55.641Z,10.30
2019-02-25T15:02:25.438Z,10.00
2019-02-25T15:04:55.110Z,9.87
2019-02-25T15:07:24.869Z,10.03
2019-02-25T15:09:54.590Z,10.63
2019-02-25T15:12:25.565Z,10.90
2019-02-25T15:14:55.891Z,10.97
2019-02-25T15:17:25.713Z,10.97
2019-02-25T15:19:55.608Z,10.73
2019-02-25T15:22:27.898Z,11.13
2019-02-25T15:24:57.110Z,11.27
2019-02-25T15:27:27.641Z,11.97
2019-02-25T15:29:57.686Z,11.40
2019-02-25T15:32:29.507Z,13.50
2019-02-25T15:34:58.753Z,11.93
2019-02-25T15:37:28.508Z,11.73
2019-02-25T15:39:58.550Z,11.80
2019-02-25T15:42:29.766Z,11.27
2019-02-25T15:44:59.731Z,11.03
2019-02-25T15:47:29.503Z,12.67
2019-02-25T15:50:03.665Z,12.30
2019-02-25T15:52:39.698Z,12.83
2019-02-25T15:55:03.371Z,11.40
2019-02-25T15:57:35.219Z,12.70
2019-02-25T16:00:06.120Z,12.18
2019-02-25T16:02:37.034Z,13.37
2019-02-25T16:05:09.952Z,12.93
2019-02-25T16:07:40.224Z,12.27
2019-02-25T16:10:12.005Z,12.73
2019-02-25T16:12:42.480Z,12.67
2019-02-25T16:15:14.961Z,12.37
2019-02-25T16:17:45.667Z,11.80
2019-02-25T16:20:17.516Z,13.30
2019-02-25T16:22:48.052Z,10.97
2019-02-25T16:25:18.166Z,12.80
2019-02-25T16:27:50.509Z,10.87
2019-02-25T16:30:21.334Z,11.50
2019-02-25T16:32:51.221Z,12.40
2019-02-25T16:35:21.188Z,13.33
2019-02-25T16:37:53.058Z,11.57
2019-02-25T16:40:26.410Z,10.73
2019-02-25T16:42:57.013Z,13.60
2019-02-25T16:45:28.547Z,11.00
2019-02-25T16:47:57.618Z,11.10
2019-02-25T16:50:27.487Z,11.53
2019-02-25T16:52:57.560Z,14.80
2019-02-25T16:55:27.869Z,13.00
2019-02-25T16:57:59.083Z,12.10
2019-02-25T17:00:30.038Z,11.27
2019-02-25T17:03:03.600Z,14.97
2019-02-25T17:05:33.664Z,14.53
2019-02-25T17:08:08.133Z,13.97
2019-02-25T17:10:38.791Z,12.63
2019-02-25T17:13:10.192Z,12.53
2019-02-25T17:15:40.035Z,13.47
2019-02-25T17:18:10.078Z,30.70
2019-02-25T17:20:39.837Z,17.87
2019-02-25T17:23:10.227Z,16.37
2019-02-25T17:25:40.740Z,14.43
2019-02-25T17:28:14.782Z,15.43
2019-02-25T17:30:43.390Z,15.13
2019-02-25T17:33:14.806Z,13.57
2019-02-25T17:35:45.225Z,14.57
2019-02-25T17:38:15.930Z,17.03
2019-02-25T17:40:47.538Z,14.98
2019-02-25T17:43:19.981Z,14.17
2019-02-25T17:45:49.335Z,15.00
2019-02-25T17:48:21.014Z,13.98
2019-02-25T17:50:50.475Z,14.10
2019-02-25T17:53:22.342Z,14.33
2019-02-25T17:55:53.354Z,14.87
2019-02-25T17:58:24.033Z,15.67
2019-02-25T18:00:54.634Z,16.67
2019-02-25T18:03:26.513Z,17.57
2019-02-25T18:05:56.912Z,27.90
2019-02-25T18:08:28.765Z,37.03
2019-02-25T18:10:59.361Z,37.67
2019-02-25T18:13:30.649Z,43.47
2019-02-25T18:16:01.007Z,32.53
2019-02-25T18:18:30.760Z,31.47
2019-02-25T18:21:00.527Z,24.67
2019-02-25T18:23:30.601Z,22.93
2019-02-25T18:26:00.338Z,23.13
2019-02-25T18:28:30.083Z,24.10
2019-02-25T18:31:01.662Z,19.70
2019-02-25T18:33:31.635Z,19.77
2019-02-25T18:36:02.369Z,21.77
2019-02-25T18:38:33.364Z,23.07
2019-02-25T18:41:04.745Z,18.90
2019-02-25T18:43:35.546Z,17.93
2019-02-25T18:46:07.173Z,16.97
2019-02-25T18:48:36.996Z,16.97
2019-02-25T18:51:06.943Z,14.13
2019-02-25T18:53:37.029Z,24.40
2019-02-25T18:56:09.556Z,25.03
2019-02-25T18:58:39.484Z,18.23
2019-02-25T19:01:11.325Z,18.07
2019-02-25T19:03:41.585Z,19.33
2019-02-25T19:06:11.685Z,16.20
2019-02-25T19:08:43.084Z,14.97
2019-02-25T19:11:15.112Z,14.07
2019-02-25T19:13:46.189Z,13.77
2019-02-25T19:16:20.582Z,15.72
2019-02-25T19:18:51.827Z,15.23
2019-02-25T19:21:22.879Z,17.85
2019-02-25T19:23:53.048Z,18.73
2019-02-25T19:26:23.340Z,15.50
2019-02-25T19:28:54.726Z,15.78
2019-02-25T19:31:26.131Z,16.40
2019-02-25T19:33:56.258Z,15.27
2019-02-25T19:36:27.958Z,17.43
2019-02-25T19:38:57.648Z,15.53
2019-02-25T19:41:29.800Z,13.97
2019-02-25T19:44:01.454Z,15.63
2019-02-25T19:46:30.174Z,14.53
2019-02-25T19:48:59.855Z,15.00
2019-02-25T19:51:29.884Z,14.47
2019-02-25T19:54:02.681Z,13.70
2019-02-25T19:56:32.409Z,27.07
2019-02-25T19:59:03.713Z,24.83
2019-02-25T20:01:34.130Z,21.67
2019-02-25T20:04:06.424Z,18.83
2019-02-25T20:06:35.807Z,18.57
2019-02-25T20:09:07.660Z,16.97
2019-02-25T20:11:38.861Z,17.27
2019-02-25T20:14:10.890Z,17.73
2019-02-25T20:16:40.441Z,18.70
2019-02-25T20:19:10.193Z,18.67
2019-02-25T20:21:40.108Z,21.33
2019-02-25T20:24:14.429Z,17.40
2019-02-25T20:26:41.817Z,18.47
2019-02-25T20:29:12.775Z,18.95
2019-02-25T20:31:43.368Z,17.70
2019-02-25T20:34:16.512Z,19.27
2019-02-25T20:36:46.496Z,19.97
2019-02-25T20:39:17.041Z,20.03
2019-02-25T20:41:48.332Z,21.30
2019-02-25T20:44:18.602Z,21.53
2019-02-25T20:46:52.637Z,21.57
2019-02-25T20:49:22.758Z,18.57
2019-02-25T20:51:54.547Z,20.60
2019-02-25T20:54:24.821Z,20.97
2019-02-25T20:56:55.463Z,18.80
2019-02-25T20:59:25.794Z,19.80
2019-02-25T21:01:56.641Z,19.93
2019-02-25T21:04:27.661Z,22.53
2019-02-25T21:06:57.461Z,23.07
2019-02-25T21:09:27.143Z,25.10
2019-02-25T21:11:57.074Z,21.93
2019-02-25T21:14:29.483Z,18.80
2019-02-25T21:17:00.459Z,21.90
2019-02-25T21:19:29.625Z,17.50
2019-02-25T21:22:02.005Z,17.03
2019-02-25T21:24:33.290Z,16.47
2019-02-25T21:27:03.674Z,17.63
2019-02-25T21:29:38.341Z,21.97
2019-02-25T21:32:07.028Z,20.83
2019-02-25T21:34:36.774Z,21.00
2019-02-25T21:37:06.524Z,18.87
2019-02-25T21:39:37.088Z,20.27
2019-02-25T21:42:10.627Z,22.17
2019-02-25T21:44:39.097Z,27.50
2019-02-25T21:47:08.794Z,27.67
2019-02-25T21:49:40.426Z,30.47
2019-02-25T21:52:13.193Z,33.20
2019-02-25T21:54:44.819Z,28.83
2019-02-25T21:57:14.656Z,37.13
2019-02-25T21:59:44.384Z,35.73
2019-02-25T22:02:14.367Z,33.97
2019-02-25T22:04:45.390Z,33.10
2019-02-25T22:07:19.834Z,37.63
2019-02-25T22:09:46.787Z,33.70
2019-02-25T22:12:17.522Z,38.00
2019-02-25T22:14:47.708Z,33.43
2019-02-25T22:17:20.620Z,36.07
2019-02-25T22:19:51.143Z,35.23
2019-02-25T22:22:24.165Z,31.37
2019-02-25T22:24:52.466Z,32.53
2019-02-25T22:27:23.084Z,27.77
2019-02-25T22:29:52.944Z,33.77
2019-02-25T22:32:22.638Z,33.07
2019-02-25T22:34:52.373Z,30.13
2019-02-25T22:37:24.439Z,32.47
2019-02-25T22:39:54.648Z,29.83
2019-02-25T22:42:25.278Z,27.70
2019-02-25T22:44:56.156Z,30.17
2019-02-25T22:47:26.117Z,27.57
2019-02-25T22:49:55.869Z,30.07
2019-02-25T22:52:27.190Z,30.08
2019-02-25T22:54:57.055Z,32.40
2019-02-25T22:57:27.860Z,31.87
2019-02-25T22:59:58.410Z,27.33
2019-02-25T23:02:28.428Z,31.80
2019-02-25T23:04:58.170Z,37.93
2019-02-25T23:07:29.160Z,37.37
2019-02-25T23:09:58.832Z,37.30
2019-02-25T23:12:29.440Z,30.30
2019-02-25T23:15:00.970Z,32.73
2019-02-25T23:17:35.178Z,34.10
2019-02-25T23:20:07.752Z,36.10
2019-02-25T23:22:39.742Z,33.47
2019-02-25T23:25:09.697Z,32.28
2019-02-25T23:27:39.441Z,36.67
2019-02-25T23:30:09.310Z,35.52
2019-02-25T23:32:39.555Z,32.10
2019-02-25T23:35:11.546Z,34.80
2019-02-25T23:37:40.717Z,34.40
2019-02-25T23:40:12.526Z,29.00
2019-02-25T23:42:43.810Z,26.67
2019-02-25T23:45:15.190Z,27.80
2019-02-25T23:47:45.272Z,27.93
2019-02-25T23:50:15.302Z,29.07
2019-02-25T23:52:45.208Z,26.87
2019-02-25T23:55:18.621Z,29.43
2019-02-25T23:57:46.522Z,26.23
